Time;durP1;ratioP1;P1;durP2;ratioP2;P2;SDS_P1;SDS_P2;PMS_P1;PMS_P2;Temp;Humidity;BMP_temperature;BMP_pressure;BME280_temperature;BME280_humidity;BME280_pressure;Samples;Min_cycle;Max_cycle;Signal;HPM_P1;HPM_P2
2023/06/12 00:00:26;;;;;;;11.30;4.38;;;18.20;99.90;;;;;;5041767;28;20042;-71
2023/06/12 00:02:52;;;;;;;13.32;4.47;;;18.20;99.90;;;;;;5042409;28;20037;-71
2023/06/12 00:05:20;;;;;;;19.55;4.78;;;18.20;99.90;;;;;;5042516;28;20108;-74
2023/06/12 00:07:47;;;;;;;13.35;4.97;;;18.10;99.90;;;;;;5042466;28;20034;-70
2023/06/12 00:10:12;;;;;;;16.48;5.07;;;18.00;99.90;;;;;;5042872;28;20021;-70
2023/06/12 00:12:38;;;;;;;12.00;4.65;;;18.10;99.90;;;;;;5043346;28;20160;-71
2023/06/12 00:15:04;;;;;;;8.82;4.10;;;18.00;99.90;;;;;;5043534;28;20021;-72
2023/06/12 00:17:32;;;;;;;12.68;4.90;;;18.00;99.90;;;;;;5041820;28;20029;-70
2023/06/12 00:19:57;;;;;;;9.98;4.22;;;18.00;99.90;;;;;;5041441;28;20164;-69
2023/06/12 00:22:23;;;;;;;13.48;5.10;;;18.00;99.90;;;;;;5041993;28;20017;-71
2023/06/12 00:24:49;;;;;;;14.85;4.78;;;17.90;99.90;;;;;;5041838;28;20048;-70
2023/06/12 00:27:14;;;;;;;12.32;4.95;;;17.90;99.90;;;;;;5042046;28;20056;-72
2023/06/12 00:29:40;;;;;;;13.50;5.15;;;17.80;99.90;;;;;;5041716;28;20033;-70
2023/06/12 00:32:06;;;;;;;14.75;4.88;;;17.70;99.90;;;;;;5043037;28;20026;-71
2023/06/12 00:34:31;;;;;;;21.35;4.70;;;17.70;99.90;;;;;;5041752;28;20029;-71
2023/06/12 00:36:57;;;;;;;8.07;4.63;;;17.70;99.90;;;;;;5041295;28;20097;-70
2023/06/12 00:39:22;;;;;;;13.45;5.53;;;17.70;99.90;;;;;;5042776;28;20044;-73
2023/06/12 00:41:48;;;;;;;15.65;5.15;;;17.60;99.90;;;;;;5042968;28;20026;-71
2023/06/12 00:44:13;;;;;;;9.77;5.00;;;17.60;99.90;;;;;;5042481;28;20037;-72
2023/06/12 00:46:39;;;;;;;13.73;5.25;;;17.60;99.90;;;;;;5042948;28;20399;-72
2023/06/12 00:49:04;;;;;;;11.63;5.03;;;17.60;99.90;;;;;;5040519;28;20060;-72
2023/06/12 00:51:32;;;;;;;13.98;4.88;;;17.50;99.90;;;;;;5057561;28;20021;-71
2023/06/12 00:53:59;;;;;;;11.60;4.93;;;17.50;99.90;;;;;;5041724;28;20017;-71
2023/06/12 00:56:25;;;;;;;11.70;4.97;;;17.30;99.90;;;;;;5041436;28;20552;-71
2023/06/12 00:58:52;;;;;;;9.32;4.88;;;17.40;99.90;;;;;;5042165;28;20033;-71
2023/06/12 01:01:24;;;;;;;11.88;5.15;;;17.40;99.90;;;;;;5042589;28;20017;-70
2023/06/12 01:03:57;;;;;;;7.70;4.57;;;17.40;99.90;;;;;;5041015;28;20021;-71
2023/06/12 01:06:33;;;;;;;11.13;4.93;;;17.30;99.90;;;;;;5041745;28;20024;-70
2023/06/12 01:09:15;;;;;;;10.85;5.07;;;17.40;99.90;;;;;;5041776;28;20025;-72
2023/06/12 01:11:42;;;;;;;8.63;4.95;;;17.30;99.90;;;;;;5040442;28;20056;-72
2023/06/12 01:14:07;;;;;;;19.90;5.38;;;17.30;99.90;;;;;;5041401;28;20033;-70
2023/06/12 01:16:33;;;;;;;16.25;5.55;;;17.20;99.90;;;;;;5041869;28;20016;-72
2023/06/12 01:19:00;;;;;;;8.95;4.85;;;17.20;99.90;;;;;;5041828;28;20025;-73
2023/06/12 01:21:29;;;;;;;22.77;6.07;;;17.20;99.90;;;;;;5040448;28;20037;-72
2023/06/12 01:24:10;;;;;;;11.82;5.40;;;17.20;99.90;;;;;;5041713;28;20079;-71
2023/06/12 01:26:57;;;;;;;16.63;5.32;;;17.20;99.90;;;;;;5039930;28;20063;-72
2023/06/12 01:29:47;;;;;;;10.25;5.05;;;17.20;99.90;;;;;;5038928;28;20097;-73
2023/06/12 01:32:15;;;;;;;10.40;5.20;;;17.10;99.90;;;;;;5041191;28;20807;-71
2023/06/12 01:35:01;;;;;;;13.05;5.28;;;17.10;99.90;;;;;;5041075;28;20028;-71
2023/06/12 01:37:31;;;;;;;15.45;5.28;;;17.00;99.90;;;;;;5041445;28;20029;-72
2023/06/12 01:39:58;;;;;;;13.02;5.72;;;17.10;99.90;;;;;;5040551;28;20036;-72
2023/06/12 01:42:26;;;;;;;10.15;5.07;;;17.00;99.90;;;;;;5041253;28;20055;-70
2023/06/12 01:44:52;;;;;;;12.20;5.68;;;17.00;99.90;;;;;;5041298;28;20032;-72
2023/06/12 01:47:18;;;;;;;12.73;5.50;;;17.00;99.90;;;;;;5039200;28;20013;-73
2023/06/12 01:49:44;;;;;;;13.93;5.45;;;17.10;99.90;;;;;;5041102;28;20140;-73
2023/06/12 01:52:09;;;;;;;11.57;5.80;;;17.00;99.90;;;;;;5040874;28;20069;-73
2023/06/12 01:54:35;;;;;;;13.68;5.50;;;16.90;99.90;;;;;;5040968;28;20033;-71
2023/06/12 01:57:01;;;;;;;10.80;5.72;;;16.90;99.90;;;;;;5039573;28;20021;-72
2023/06/12 01:59:27;;;;;;;17.63;5.50;;;16.90;99.90;;;;;;5040399;28;20021;-73
2023/06/12 02:01:53;;;;;;;10.57;5.45;;;16.90;99.90;;;;;;5039149;28;20030;-71
2023/06/12 02:04:19;;;;;;;11.95;6.07;;;16.80;99.90;;;;;;5041193;28;20033;-72
2023/06/12 02:06:45;;;;;;;12.02;5.10;;;16.80;99.90;;;;;;5040177;28;20033;-71
2023/06/12 02:09:11;;;;;;;18.30;5.95;;;16.70;99.90;;;;;;5039447;28;20025;-70
2023/06/12 02:11:37;;;;;;;9.93;5.50;;;16.70;99.90;;;;;;5041096;28;20105;-72
2023/06/12 02:14:02;;;;;;;14.30;5.55;;;16.60;99.90;;;;;;5038212;28;20029;-73
2023/06/12 02:16:28;;;;;;;24.83;6.10;;;16.60;99.90;;;;;;5041069;28;20022;-71
2023/06/12 02:18:53;;;;;;;18.63;6.15;;;16.60;99.90;;;;;;5041485;28;20041;-71
2023/06/12 02:21:19;;;;;;;15.55;5.68;;;16.60;99.90;;;;;;5039329;28;20018;-72
2023/06/12 02:23:45;;;;;;;13.48;5.57;;;16.50;99.90;;;;;;5043317;28;20029;-71
2023/06/12 02:26:10;;;;;;;13.55;5.85;;;16.60;99.90;;;;;;5044969;28;20026;-70
2023/06/12 02:28:40;;;;;;;17.58;5.78;;;16.50;99.90;;;;;;5044021;28;20069;-71
2023/06/12 02:31:05;;;;;;;10.65;6.03;;;16.50;99.90;;;;;;5044660;28;20038;-72
2023/06/12 02:33:31;;;;;;;15.32;6.28;;;16.50;99.90;;;;;;5044951;28;20048;-72
2023/06/12 02:35:57;;;;;;;13.77;6.35;;;16.50;99.90;;;;;;5043260;28;20026;-71
2023/06/12 02:38:22;;;;;;;14.35;5.50;;;16.50;99.90;;;;;;5045009;28;20039;-73
2023/06/12 02:40:48;;;;;;;11.90;5.53;;;16.40;99.90;;;;;;5042957;28;20028;-71
2023/06/12 02:43:13;;;;;;;12.93;6.00;;;16.40;99.90;;;;;;5043014;28;20028;-71
2023/06/12 02:45:39;;;;;;;15.18;5.90;;;16.40;99.90;;;;;;5043627;28;20041;-72
2023/06/12 02:48:05;;;;;;;12.10;5.40;;;16.40;99.90;;;;;;5042990;28;20049;-72
2023/06/12 02:50:30;;;;;;;14.77;6.18;;;16.30;99.90;;;;;;5042395;28;20037;-73
2023/06/12 02:52:56;;;;;;;13.38;6.07;;;16.30;99.90;;;;;;5044113;28;20033;-70
2023/06/12 02:55:21;;;;;;;12.80;6.00;;;16.40;99.90;;;;;;5044257;28;20029;-72
2023/06/12 02:57:47;;;;;;;9.63;5.28;;;16.20;99.90;;;;;;5044262;28;20018;-71
2023/06/12 03:00:14;;;;;;;10.77;5.90;;;16.30;99.90;;;;;;5044549;28;20029;-70
2023/06/12 03:02:42;;;;;;;10.55;5.82;;;16.20;99.90;;;;;;5043675;28;20041;-72
2023/06/12 03:05:12;;;;;;;14.23;6.38;;;16.30;99.90;;;;;;5043064;28;20026;-70
2023/06/12 03:07:40;;;;;;;14.98;6.30;;;16.20;99.90;;;;;;5043038;28;20113;-73
2023/06/12 03:10:06;;;;;;;12.00;6.47;;;16.20;99.90;;;;;;5042481;28;20030;-71
2023/06/12 03:12:31;;;;;;;9.98;5.78;;;16.10;99.90;;;;;;5042727;28;20102;-73
2023/06/12 03:14:58;;;;;;;11.40;5.75;;;16.10;99.90;;;;;;5043854;28;20021;-70
2023/06/12 03:17:23;;;;;;;11.73;5.80;;;16.10;99.90;;;;;;5042776;28;20053;-71
2023/06/12 03:19:49;;;;;;;15.88;7.10;;;16.20;99.90;;;;;;5042704;28;20749;-72
2023/06/12 03:22:14;;;;;;;13.20;5.50;;;16.00;99.90;;;;;;5042369;28;20028;-70
2023/06/12 03:24:40;;;;;;;12.00;6.03;;;16.10;99.90;;;;;;5043551;28;20032;-73
2023/06/12 03:27:08;;;;;;;17.67;6.60;;;16.10;99.90;;;;;;5042510;28;20021;-70
2023/06/12 03:29:34;;;;;;;15.23;6.50;;;16.10;99.90;;;;;;5042446;28;20056;-72
2023/06/12 03:31:59;;;;;;;14.23;6.10;;;16.10;99.90;;;;;;5043150;28;20026;-71
2023/06/12 03:34:25;;;;;;;13.48;6.32;;;16.00;99.90;;;;;;5043073;28;20032;-71
2023/06/12 03:36:51;;;;;;;12.57;6.28;;;16.00;99.90;;;;;;5043291;28;20494;-71
2023/06/12 03:39:16;;;;;;;15.73;6.40;;;16.00;99.90;;;;;;5043344;28;20022;-72
2023/06/12 03:41:56;;;;;;;12.60;6.10;;;16.00;99.90;;;;;;5041643;28;20262;-72
2023/06/12 03:44:24;;;;;;;14.10;6.57;;;16.00;99.90;;;;;;5042249;28;20036;-70
2023/06/12 03:46:50;;;;;;;14.73;6.40;;;16.00;99.90;;;;;;5043258;28;20022;-70
2023/06/12 03:49:15;;;;;;;13.13;6.32;;;16.00;99.90;;;;;;5043063;28;20042;-70
2023/06/12 03:51:42;;;;;;;15.50;6.38;;;16.00;99.90;;;;;;5041463;28;20056;-71
2023/06/12 03:54:07;;;;;;;17.60;6.93;;;16.00;99.90;;;;;;5042610;28;20068;-71
2023/06/12 03:56:33;;;;;;;10.13;6.03;;;16.00;99.90;;;;;;5043371;28;20060;-71
2023/06/12 03:59:00;;;;;;;15.38;7.15;;;16.00;99.90;;;;;;5043291;28;20018;-70
2023/06/12 04:01:26;;;;;;;15.43;6.20;;;16.00;99.90;;;;;;5043573;28;20057;-70
2023/06/12 04:03:53;;;;;;;14.73;6.63;;;16.00;99.90;;;;;;5042641;28;20030;-69
2023/06/12 04:06:21;;;;;;;16.27;6.68;;;16.00;99.90;;;;;;5043586;28;20022;-69
2023/06/12 04:08:47;;;;;;;15.20;6.35;;;16.00;99.90;;;;;;5043243;28;20030;-69
2023/06/12 04:11:14;;;;;;;14.20;6.65;;;16.00;99.90;;;;;;5042145;28;20041;-70
2023/06/12 04:13:41;;;;;;;13.48;6.40;;;16.00;99.90;;;;;;5042721;28;20091;-70
2023/06/12 04:16:07;;;;;;;14.32;6.68;;;16.00;99.90;;;;;;5042703;28;20048;-71
2023/06/12 04:18:33;;;;;;;9.45;6.13;;;16.00;99.90;;;;;;5043552;28;20385;-69
2023/06/12 04:21:00;;;;;;;12.27;6.53;;;16.00;99.90;;;;;;5043058;28;20029;-70
2023/06/12 04:23:29;;;;;;;17.80;7.15;;;16.00;99.90;;;;;;5042246;28;20022;-70
2023/06/12 04:26:01;;;;;;;13.55;7.38;;;16.00;99.90;;;;;;5041724;28;20030;-71
2023/06/12 04:28:28;;;;;;;16.88;6.40;;;16.10;99.90;;;;;;5041652;28;20035;-68
2023/06/12 04:30:54;;;;;;;12.50;6.10;;;16.10;99.90;;;;;;5042252;28;20041;-70
2023/06/12 04:33:21;;;;;;;14.75;6.60;;;16.10;99.90;;;;;;5042783;28;21827;-70
2023/06/12 04:35:46;;;;;;;13.88;6.50;;;16.10;99.90;;;;;;5041946;28;20033;-69
2023/06/12 04:38:12;;;;;;;14.05;6.80;;;16.20;99.90;;;;;;5043123;28;20037;-70
2023/06/12 04:40:37;;;;;;;15.80;6.75;;;16.20;99.90;;;;;;5042886;28;20387;-69
2023/06/12 04:43:06;;;;;;;13.35;6.78;;;16.20;99.90;;;;;;5041588;28;20099;-71
2023/06/12 04:45:33;;;;;;;13.95;6.70;;;16.20;99.90;;;;;;5042886;28;20021;-70
2023/06/12 04:47:59;;;;;;;11.18;6.60;;;16.20;99.90;;;;;;5042225;28;20462;-68
2023/06/12 04:50:25;;;;;;;10.35;6.40;;;16.30;99.90;;;;;;5042571;28;20029;-70
2023/06/12 04:52:52;;;;;;;16.20;6.60;;;16.40;99.90;;;;;;5042825;28;20051;-71
2023/06/12 04:55:22;;;;;;;16.08;6.90;;;16.30;99.90;;;;;;5043017;28;20036;-69
2023/06/12 04:57:52;;;;;;;16.48;7.30;;;16.40;99.90;;;;;;5042369;28;20036;-69
2023/06/12 05:00:21;;;;;;;15.63;6.60;;;16.40;99.90;;;;;;5041409;28;20022;-70
2023/06/12 05:02:46;;;;;;;15.50;7.78;;;16.50;99.90;;;;;;5042106;28;20021;-69
2023/06/12 05:05:12;;;;;;;15.10;7.13;;;16.50;99.90;;;;;;5042659;28;20037;-69
2023/06/12 05:07:38;;;;;;;15.35;6.70;;;16.50;99.90;;;;;;5042606;28;20033;-71
2023/06/12 05:10:04;;;;;;;16.92;7.32;;;16.50;99.90;;;;;;5042453;28;20123;-69
2023/06/12 05:12:30;;;;;;;10.25;6.57;;;16.60;99.90;;;;;;5041723;28;20028;-70
2023/06/12 05:14:59;;;;;;;17.58;7.30;;;16.60;99.90;;;;;;5042849;28;20406;-71
2023/06/12 05:17:25;;;;;;;15.65;7.38;;;16.60;99.90;;;;;;5040216;28;20025;-71
2023/06/12 05:19:51;;;;;;;15.45;7.13;;;16.70;99.90;;;;;;5040650;28;20437;-71
2023/06/12 05:22:16;;;;;;;12.35;6.70;;;16.70;99.90;;;;;;5041307;28;20647;-70
2023/06/12 05:24:42;;;;;;;14.73;6.72;;;16.80;99.90;;;;;;5042133;28;20096;-70
2023/06/12 05:27:08;;;;;;;19.35;7.45;;;16.80;99.90;;;;;;5042128;28;20486;-68
2023/06/12 05:29:33;;;;;;;12.55;7.18;;;16.70;99.90;;;;;;5041274;28;20037;-68
2023/06/12 05:31:59;;;;;;;11.20;6.53;;;16.90;99.90;;;;;;5041861;28;20025;-69
2023/06/12 05:34:25;;;;;;;19.67;7.97;;;16.90;99.90;;;;;;5042244;28;20021;-70
2023/06/12 05:36:50;;;;;;;10.70;6.72;;;16.90;99.90;;;;;;5042174;28;20363;-71
2023/06/12 05:39:16;;;;;;;12.10;7.07;;;17.00;99.90;;;;;;5039009;28;20026;-70
2023/06/12 05:41:42;;;;;;;16.23;6.90;;;17.00;99.90;;;;;;5036934;28;20538;-68
2023/06/12 05:44:08;;;;;;;16.00;7.22;;;17.10;99.90;;;;;;5039884;28;20479;-68
2023/06/12 05:46:34;;;;;;;11.65;6.60;;;17.10;99.90;;;;;;5041573;28;20025;-70
2023/06/12 05:49:00;;;;;;;12.50;6.85;;;17.20;99.90;;;;;;5041811;28;20236;-70
2023/06/12 05:51:27;;;;;;;10.77;7.03;;;17.30;99.90;;;;;;5041616;28;20064;-69
2023/06/12 05:53:53;;;;;;;13.20;7.40;;;17.30;99.90;;;;;;5040897;28;20021;-71
2023/06/12 05:56:18;;;;;;;15.02;7.97;;;17.40;99.90;;;;;;5041476;28;20108;-68
2023/06/12 05:58:44;;;;;;;14.15;8.18;;;17.50;99.90;;;;;;5040710;28;20505;-70
2023/06/12 06:01:11;;;;;;;13.93;7.63;;;17.60;99.90;;;;;;5039964;28;20033;-68
2023/06/12 06:03:42;;;;;;;12.40;7.43;;;17.60;99.90;;;;;;5041199;28;20018;-69
2023/06/12 06:06:17;;;;;;;18.88;8.68;;;17.70;99.90;;;;;;5039880;28;20021;-69
2023/06/12 06:08:43;;;;;;;16.55;7.55;;;17.80;99.90;;;;;;5041507;28;20152;-69
2023/06/12 06:11:08;;;;;;;14.95;8.15;;;17.90;99.90;;;;;;5041015;28;20454;-70
2023/06/12 06:13:34;;;;;;;12.50;7.70;;;18.00;99.90;;;;;;5041223;28;20026;-69
2023/06/12 06:16:01;;;;;;;12.60;7.70;;;17.90;99.90;;;;;;5039418;28;20026;-70
2023/06/12 06:18:27;;;;;;;13.13;7.28;;;18.00;99.90;;;;;;5041823;28;20017;-70
2023/06/12 06:20:53;;;;;;;14.98;8.20;;;18.10;99.90;;;;;;5041457;28;20030;-70
2023/06/12 06:23:18;;;;;;;13.48;8.15;;;18.10;99.90;;;;;;5041544;28;20025;-69
2023/06/12 06:25:44;;;;;;;16.75;8.77;;;18.10;99.90;;;;;;5041211;28;20036;-71
2023/06/12 06:28:10;;;;;;;17.73;8.10;;;18.30;99.90;;;;;;5041318;28;20045;-69
2023/06/12 06:30:35;;;;;;;15.55;8.68;;;18.40;99.90;;;;;;5041287;28;20038;-70
2023/06/12 06:33:01;;;;;;;15.40;8.50;;;18.40;99.90;;;;;;5040925;28;20044;-70
2023/06/12 06:35:26;;;;;;;14.48;9.30;;;18.50;99.90;;;;;;5039543;28;20132;-71
2023/06/12 06:37:52;;;;;;;16.70;8.77;;;18.60;99.90;;;;;;5040074;28;20018;-70
2023/06/12 06:40:18;;;;;;;16.83;8.90;;;18.70;99.90;;;;;;5041567;28;20036;-69
2023/06/12 06:42:43;;;;;;;15.68;8.70;;;18.80;99.90;;;;;;5039593;28;20052;-69
2023/06/12 06:45:09;;;;;;;14.68;8.25;;;18.80;99.90;;;;;;5041277;28;20020;-70
2023/06/12 06:47:35;;;;;;;16.38;8.57;;;18.90;99.90;;;;;;5040602;28;20056;-71
2023/06/12 06:50:01;;;;;;;17.13;9.48;;;18.90;99.90;;;;;;5040758;28;20054;-70
2023/06/12 06:52:26;;;;;;;15.95;10.38;;;19.10;99.90;;;;;;5039956;28;20022;-71
2023/06/12 06:54:52;;;;;;;15.82;10.63;;;19.20;99.90;;;;;;5039623;28;20025;-72
2023/06/12 06:57:18;;;;;;;21.55;9.70;;;19.30;99.90;;;;;;5026743;28;20095;-69
2023/06/12 06:59:44;;;;;;;19.15;10.00;;;19.30;99.90;;;;;;5034300;28;20033;-70
2023/06/12 07:02:10;;;;;;;17.30;9.88;;;19.50;99.90;;;;;;5038055;28;20056;-70
2023/06/12 07:04:36;;;;;;;14.48;9.80;;;19.60;99.90;;;;;;5036705;28;20468;-70
2023/06/12 07:07:03;;;;;;;17.25;10.13;;;19.70;99.90;;;;;;5035631;28;20044;-69
2023/06/12 07:09:29;;;;;;;18.75;10.68;;;19.70;99.90;;;;;;5036204;28;20022;-72
2023/06/12 07:11:54;;;;;;;17.92;10.15;;;19.80;99.90;;;;;;5039970;28;20040;-69
2023/06/12 07:14:20;;;;;;;15.93;10.30;;;19.90;99.90;;;;;;5043970;28;20025;-69
2023/06/12 07:16:45;;;;;;;14.18;10.32;;;19.90;99.90;;;;;;5044468;28;20033;-70
2023/06/12 07:19:11;;;;;;;16.00;11.68;;;20.00;99.90;;;;;;5043187;28;20089;-68
2023/06/12 07:21:37;;;;;;;14.88;10.60;;;20.10;99.90;;;;;;5043364;28;20025;-69
2023/06/12 07:24:03;;;;;;;17.25;10.85;;;20.20;99.90;;;;;;5042678;28;20382;-69
2023/06/12 07:26:29;;;;;;;16.25;10.65;;;20.30;99.90;;;;;;5043255;28;20160;-69
2023/06/12 07:28:55;;;;;;;18.17;11.05;;;20.30;99.90;;;;;;5042644;28;20057;-71
2023/06/12 07:31:20;;;;;;;17.73;11.05;;;20.50;99.90;;;;;;5042239;28;20041;-70
2023/06/12 07:33:46;;;;;;;21.83;11.43;;;20.50;99.90;;;;;;5044146;28;20520;-68
2023/06/12 07:36:12;;;;;;;18.08;11.73;;;20.60;99.90;;;;;;5044264;28;20030;-67
2023/06/12 07:38:38;;;;;;;16.40;11.30;;;20.60;99.90;;;;;;5042497;28;20021;-69
2023/06/12 07:41:04;;;;;;;21.23;12.18;;;20.70;99.90;;;;;;5042697;28;20021;-70
2023/06/12 07:43:34;;;;;;;15.73;10.85;;;20.80;99.90;;;;;;5043574;28;20080;-71
2023/06/12 07:46:02;;;;;;;19.58;11.35;;;20.80;99.90;;;;;;5041993;28;20028;-71
2023/06/12 07:48:28;;;;;;;16.70;11.32;;;20.80;99.90;;;;;;5042997;28;20041;-69
2023/06/12 07:50:55;;;;;;;16.27;10.57;;;20.80;99.90;;;;;;5043218;28;20060;-67
2023/06/12 07:53:21;;;;;;;16.92;11.00;;;20.90;99.90;;;;;;5043073;28;20501;-70
2023/06/12 07:55:49;;;;;;;15.18;10.93;;;20.90;99.90;;;;;;5043969;28;20084;-69
2023/06/12 07:58:15;;;;;;;20.65;11.77;;;21.00;99.90;;;;;;5043197;28;20033;-69
2023/06/12 08:00:40;;;;;;;19.33;11.85;;;20.90;99.90;;;;;;5043280;28;20032;-70
2023/06/12 08:03:08;;;;;;;15.82;10.73;;;21.00;99.90;;;;;;5041289;28;20052;-70
2023/06/12 08:05:34;;;;;;;16.75;11.90;;;21.10;99.90;;;;;;5042960;28;20029;-68
2023/06/12 08:08:00;;;;;;;18.95;11.55;;;21.20;99.90;;;;;;5043388;28;20022;-71
2023/06/12 08:10:29;;;;;;;21.80;12.55;;;21.30;99.90;;;;;;5043439;28;20044;-70
2023/06/12 08:12:54;;;;;;;18.95;12.48;;;21.40;99.90;;;;;;5043106;28;20049;-68
2023/06/12 08:15:21;;;;;;;15.38;10.63;;;21.60;99.90;;;;;;5042431;28;20060;-69
2023/06/12 08:17:47;;;;;;;16.75;12.13;;;21.70;99.90;;;;;;5041831;28;20029;-70
2023/06/12 08:20:15;;;;;;;17.33;12.00;;;21.80;99.90;;;;;;5042447;28;20053;-69
2023/06/12 08:22:42;;;;;;;16.98;11.63;;;21.90;99.90;;;;;;5038601;28;20064;-69
2023/06/12 08:25:08;;;;;;;16.25;11.65;;;22.10;99.90;;;;;;5041516;28;20025;-71
2023/06/12 08:27:34;;;;;;;15.07;11.52;;;22.20;99.90;;;;;;5041660;28;20036;-70
2023/06/12 08:30:00;;;;;;;15.80;12.50;;;22.30;99.90;;;;;;5042830;28;20414;-70
2023/06/12 08:32:27;;;;;;;19.05;12.73;;;22.40;99.90;;;;;;5041959;28;20028;-71
2023/06/12 08:34:53;;;;;;;16.08;11.07;;;22.50;99.90;;;;;;5043256;28;20057;-68
2023/06/12 08:37:19;;;;;;;17.88;10.75;;;22.70;99.90;;;;;;5042742;28;20144;-68
2023/06/12 08:39:45;;;;;;;19.33;12.02;;;22.80;99.90;;;;;;5041090;28;20079;-68
2023/06/12 08:42:15;;;;;;;20.77;12.30;;;23.00;99.90;;;;;;5041878;28;20033;-67
2023/06/12 08:44:46;;;;;;;13.82;11.32;;;23.00;99.90;;;;;;5038203;28;20060;-69
2023/06/12 08:47:13;;;;;;;17.25;11.45;;;23.00;99.90;;;;;;5041230;28;20033;-70
2023/06/12 08:49:39;;;;;;;14.52;10.60;;;23.10;99.90;;;;;;5035669;28;20383;-70
2023/06/12 08:52:06;;;;;;;16.13;11.20;;;23.20;99.90;;;;;;5041458;28;20021;-70
2023/06/12 08:54:43;;;;;;;13.93;10.65;;;23.30;99.90;;;;;;5042032;28;20018;-73
2023/06/12 08:57:09;;;;;;;15.88;10.60;;;23.50;99.90;;;;;;5042627;28;20566;-69
2023/06/12 08:59:34;;;;;;;14.27;10.50;;;23.60;99.90;;;;;;5037839;28;20049;-69
2023/06/12 09:02:02;;;;;;;15.35;10.32;;;23.80;99.90;;;;;;5042218;28;20081;-72
2023/06/12 09:04:56;;;;;;;14.93;9.95;;;24.00;99.90;;;;;;5042689;28;20082;-70
2023/06/12 09:07:24;;;;;;;13.10;9.43;;;24.20;99.90;;;;;;5052485;28;20041;-70
2023/06/12 09:09:49;;;;;;;12.32;9.13;;;24.40;99.90;;;;;;5038485;28;20042;-69
2023/06/12 09:12:15;;;;;;;10.23;8.73;;;24.60;99.90;;;;;;5040537;28;20088;-71
2023/06/12 09:14:48;;;;;;;13.52;9.02;;;24.70;99.90;;;;;;5041184;28;20030;-71
2023/06/12 09:17:13;;;;;;;21.40;8.65;;;24.80;99.90;;;;;;5041062;28;20027;-71
2023/06/12 09:19:48;;;;;;;18.50;8.60;;;24.90;99.90;;;;;;5041849;28;20029;-69
2023/06/12 09:22:13;;;;;;;14.45;8.80;;;24.90;99.90;;;;;;5039150;28;20059;-69
2023/06/12 09:24:40;;;;;;;12.07;9.23;;;24.90;99.90;;;;;;5041577;28;20022;-69
2023/06/12 09:27:06;;;;;;;14.32;9.25;;;24.90;99.90;;;;;;5041833;28;20022;-71
2023/06/12 09:29:32;;;;;;;12.55;9.25;;;24.70;99.90;;;;;;5040019;28;20084;-70
2023/06/12 09:32:11;;;;;;;14.73;9.60;;;24.60;99.90;;;;;;5037836;28;20049;-72
2023/06/12 09:34:37;;;;;;;12.32;9.32;;;24.40;99.90;;;;;;5041019;28;20064;-70
2023/06/12 09:37:08;;;;;;;15.32;9.43;;;24.30;99.90;;;;;;5040396;28;20029;-71
2023/06/12 09:39:33;;;;;;;13.55;9.00;;;24.20;99.90;;;;;;5040694;28;20021;-69
2023/06/12 09:42:01;;;;;;;18.02;9.77;;;24.10;99.90;;;;;;5041825;28;20025;-70
2023/06/12 09:44:29;;;;;;;13.60;9.32;;;24.10;99.90;;;;;;5041304;28;20026;-69
2023/06/12 09:47:02;;;;;;;16.38;9.60;;;24.10;99.90;;;;;;5041712;28;20639;-69
2023/06/12 09:49:28;;;;;;;13.57;10.18;;;24.10;99.90;;;;;;5040916;28;20056;-68
2023/06/12 09:51:59;;;;;;;12.75;9.40;;;24.10;99.90;;;;;;5040169;28;20064;-70
2023/06/12 09:54:27;;;;;;;11.15;8.70;;;24.10;99.90;;;;;;5041283;28;20025;-69
2023/06/12 09:56:55;;;;;;;13.27;9.40;;;24.10;99.90;;;;;;5039028;28;20490;-71
2023/06/12 09:59:22;;;;;;;12.73;8.75;;;24.20;99.90;;;;;;5041335;28;20034;-71
2023/06/12 10:02:03;;;;;;;13.00;8.60;;;24.30;99.90;;;;;;5040866;28;20021;-68
2023/06/12 10:04:40;;;;;;;13.52;9.13;;;24.50;99.90;;;;;;5041275;28;20025;-71
2023/06/12 10:07:22;;;;;;;14.63;8.95;;;24.70;99.90;;;;;;5041227;28;20018;-69
2023/06/12 10:09:48;;;;;;;13.30;9.20;;;25.00;99.90;;;;;;5039962;28;20101;-70
2023/06/12 10:12:16;;;;;;;16.15;9.38;;;25.20;99.90;;;;;;5041409;28;20526;-69
2023/06/12 10:14:42;;;;;;;10.13;8.88;;;25.50;99.90;;;;;;5040157;28;20573;-69
2023/06/12 10:17:10;;;;;;;13.05;8.68;;;25.60;99.90;;;;;;5040305;28;20037;-70
2023/06/12 10:19:37;;;;;;;11.27;7.82;;;25.70;99.90;;;;;;5039786;28;20022;-70
2023/06/12 10:22:06;;;;;;;19.55;8.50;;;25.70;99.90;;;;;;5039499;28;20029;-69
2023/06/12 10:24:33;;;;;;;13.27;8.52;;;25.70;99.90;;;;;;5040317;28;20109;-71
2023/06/12 10:26:59;;;;;;;17.80;8.30;;;25.80;99.90;;;;;;5041195;28;20060;-71
2023/06/12 10:29:29;;;;;;;16.25;7.95;;;25.80;99.90;;;;;;5040075;28;20021;-71
2023/06/12 10:32:05;;;;;;;15.38;8.43;;;25.90;99.90;;;;;;5041299;28;20032;-69
2023/06/12 10:34:42;;;;;;;13.88;8.52;;;26.20;99.90;;;;;;5039630;28;20025;-70
2023/06/12 10:37:31;;;;;;;14.98;7.78;;;26.30;99.90;;;;;;5038948;28;20478;-69
2023/06/12 10:40:21;;;;;;;13.63;8.02;;;26.50;99.90;;;;;;5040478;28;20018;-71
2023/06/12 10:42:48;;;;;;;14.00;8.13;;;26.70;99.90;;;;;;5039683;28;20105;-72
2023/06/12 10:45:17;;;;;;;11.77;8.02;;;26.70;99.90;;;;;;5044266;28;20048;-70
2023/06/12 10:48:05;;;;;;;15.02;7.63;;;26.90;99.90;;;;;;5044075;28;20076;-69
2023/06/12 10:50:38;;;;;;;9.90;8.00;;;27.00;99.90;;;;;;5043142;28;20037;-71
2023/06/12 10:53:05;;;;;;;13.17;7.70;;;27.20;99.90;;;;;;5043147;28;20048;-70
2023/06/12 10:55:32;;;;;;;12.82;7.80;;;27.30;99.90;;;;;;5043152;28;20017;-72
2023/06/12 10:58:00;;;;;;;17.15;8.10;;;27.40;99.90;;;;;;5043544;28;20482;-71
2023/06/12 11:01:00;;;;;;;13.93;7.72;;;27.50;99.90;;;;;;5043916;28;20063;-72
2023/06/12 11:03:29;;;;;;;21.05;8.00;;;27.50;99.90;;;;;;5042855;28;20043;-74
2023/06/12 11:06:08;;;;;;;15.70;7.47;;;27.40;99.90;;;;;;5044041;28;20025;-71
2023/06/12 11:08:34;;;;;;;9.80;7.63;;;27.50;99.90;;;;;;5044308;28;20028;-70
2023/06/12 11:11:05;;;;;;;8.20;7.18;;;27.40;99.90;;;;;;5042033;28;20037;-71
2023/06/12 11:13:31;;;;;;;18.13;7.35;;;27.40;99.90;;;;;;5043791;28;20124;-70
2023/06/12 11:15:56;;;;;;;11.07;7.75;;;27.50;99.90;;;;;;5042849;28;20057;-70
2023/06/12 11:18:22;;;;;;;9.70;7.00;;;27.60;99.90;;;;;;5044128;28;20048;-70
2023/06/12 11:20:55;;;;;;;12.18;7.40;;;27.80;99.90;;;;;;5042933;28;20025;-70
2023/06/12 11:23:26;;;;;;;9.35;7.13;;;28.00;99.90;;;;;;5044924;28;20052;-71
2023/06/12 11:25:54;;;;;;;11.07;7.15;;;28.00;99.90;;;;;;5044418;28;20040;-68
2023/06/12 11:28:20;;;;;;;13.57;7.47;;;27.90;99.90;;;;;;5043992;28;20089;-71
2023/06/12 11:30:51;;;;;;;12.13;7.00;;;27.80;99.90;;;;;;5042601;28;20033;-69
2023/06/12 11:33:17;;;;;;;11.43;7.70;;;27.70;99.90;;;;;;5041789;28;20041;-71
2023/06/12 11:35:48;;;;;;;10.98;6.88;;;27.70;99.90;;;;;;5043413;28;20033;-72
2023/06/12 11:38:23;;;;;;;15.55;7.72;;;27.90;99.60;;;;;;5043649;28;20041;-70
2023/06/12 11:40:53;;;;;;;9.40;6.80;;;28.00;99.90;;;;;;5041978;28;20406;-71
2023/06/12 11:43:21;;;;;;;10.75;6.97;;;28.20;99.90;;;;;;5043518;28;20025;-71
2023/06/12 11:45:48;;;;;;;11.00;6.60;;;28.30;99.50;;;;;;5044122;28;20040;-70
2023/06/12 11:48:16;;;;;;;12.38;6.35;;;28.50;99.90;;;;;;5041593;28;20050;-69
2023/06/12 11:50:47;;;;;;;10.55;6.20;;;28.70;99.90;;;;;;5042117;28;20048;-71
2023/06/12 11:53:14;;;;;;;12.23;6.80;;;28.90;99.70;;;;;;5043718;28;20017;-70
2023/06/12 11:55:39;;;;;;;11.60;6.53;;;29.00;99.50;;;;;;5042677;28;20017;-73
2023/06/12 11:58:05;;;;;;;11.60;6.13;;;29.20;99.00;;;;;;5043581;28;20055;-70
2023/06/12 12:00:33;;;;;;;11.65;6.32;;;29.30;99.00;;;;;;5040809;28;20043;-68
2023/06/12 12:03:02;;;;;;;10.48;5.88;;;29.40;99.00;;;;;;5043418;28;20022;-69
2023/06/12 12:05:37;;;;;;;10.43;6.25;;;29.60;98.90;;;;;;5043743;28;20024;-71
2023/06/12 12:08:04;;;;;;;9.13;5.90;;;29.60;97.00;;;;;;5043068;28;20033;-69
2023/06/12 12:10:32;;;;;;;13.30;5.90;;;29.60;98.00;;;;;;5042653;28;20038;-73
2023/06/12 12:13:02;;;;;;;8.73;6.05;;;29.70;97.90;;;;;;5041232;28;20036;-71
2023/06/12 12:15:35;;;;;;;9.95;6.05;;;29.70;97.40;;;;;;5041908;28;20026;-72
2023/06/12 12:18:00;;;;;;;10.30;5.90;;;29.70;97.30;;;;;;5042777;28;20246;-71
2023/06/12 12:20:28;;;;;;;10.25;5.70;;;29.70;96.90;;;;;;5043026;28;20026;-71
2023/06/12 12:23:02;;;;;;;10.15;6.00;;;29.60;96.40;;;;;;5039833;28;20065;-71
2023/06/12 12:25:31;;;;;;;11.80;6.05;;;29.50;96.10;;;;;;5041784;28;20029;-69
2023/06/12 12:28:04;;;;;;;10.90;6.10;;;29.40;96.60;;;;;;5037801;28;20041;-71
2023/06/12 12:30:30;;;;;;;8.07;6.05;;;29.10;96.30;;;;;;5037765;28;21875;-70
2023/06/12 12:32:57;;;;;;;7.70;6.10;;;28.90;96.70;;;;;;5042950;28;20116;-72
2023/06/12 12:35:24;;;;;;;12.40;6.03;;;29.00;97.00;;;;;;5042896;28;20025;-69
2023/06/12 12:37:53;;;;;;;10.38;6.40;;;29.00;96.10;;;;;;5043080;28;20113;-69